Time;durP1;ratioP1;P1;durP2;ratioP2;P2;SDS_P1;SDS_P2;PMS_P1;PMS_P2;Temp;Humidity;BMP_temperature;BMP_pressure;BME280_temperature;BME280_humidity;BME280_pressure;Samples;Min_cycle;Max_cycle;Signal;HPM_P1;HPM_P2
2021/04/26 00:02:17;;;;;;;;;10.00;10.00;;;;;;;;5020020;28;11517;-78
2021/04/26 00:04:44;;;;;;;;;17.25;11.00;;;;;;;;5022381;28;11656;-80
2021/04/26 00:07:11;;;;;;;;;11.50;10.00;;;;;;;;5021824;28;11573;-82
2021/04/26 00:09:38;;;;;;;;;11.00;10.50;;;;;;;;5022333;28;11626;-81
2021/04/26 00:12:05;;;;;;;;;10.00;7.00;;;;;;;;5021978;28;11517;-81
2021/04/26 00:14:34;;;;;;;;;10.75;10.75;;;;;;;;5022811;28;11588;-81
2021/04/26 00:17:03;;;;;;;;;10.00;10.00;;;;;;;;5023278;28;11499;-82
2021/04/26 00:19:29;;;;;;;;;11.50;10.00;;;;;;;;5021587;28;12267;-82
2021/04/26 00:21:59;;;;;;;;;11.25;9.50;;;;;;;;5024050;28;11593;-82
2021/04/26 00:24:26;;;;;;;;;12.50;10.25;;;;;;;;5022071;28;11595;-82
2021/04/26 00:26:56;;;;;;;;;10.50;10.50;;;;;;;;5023614;28;11541;-82
2021/04/26 00:29:23;;;;;;;;;9.00;9.00;;;;;;;;5019025;28;11584;-82
2021/04/26 00:31:50;;;;;;;;;12.25;9.50;;;;;;;;5018091;28;11637;-82
2021/04/26 00:34:19;;;;;;;;;10.50;10.00;;;;;;;;5023882;28;11573;-82
2021/04/26 00:36:46;;;;;;;;;15.75;11.25;;;;;;;;5022249;28;11561;-81
2021/04/26 00:39:13;;;;;;;;;10.25;10.25;;;;;;;;5022265;28;11597;-81
2021/04/26 00:41:40;;;;;;;;;13.00;10.00;;;;;;;;5021072;28;11600;-81
2021/04/26 00:44:07;;;;;;;;;10.50;10.00;;;;;;;;5022739;28;11703;-81
2021/04/26 00:46:34;;;;;;;;;16.75;11.50;;;;;;;;5020929;28;11688;-81
2021/04/26 00:49:01;;;;;;;;;9.00;9.00;;;;;;;;5023592;28;11688;-81
2021/04/26 00:51:28;;;;;;;;;13.00;10.00;;;;;;;;5022506;28;11584;-81
2021/04/26 00:53:55;;;;;;;;;12.75;10.25;;;;;;;;5022259;28;11742;-80
2021/04/26 00:56:22;;;;;;;;;13.50;13.50;;;;;;;;5022405;28;11702;-79
2021/04/26 00:58:49;;;;;;;;;15.00;10.25;;;;;;;;5020730;28;11569;-80
2021/04/26 01:01:18;;;;;;;;;14.50;11.75;;;;;;;;5021729;28;11556;-79
2021/04/26 01:03:45;;;;;;;;;10.75;10.75;;;;;;;;5019194;28;11572;-79
2021/04/26 01:06:13;;;;;;;;;16.00;10.00;;;;;;;;5021608;28;11719;-79
2021/04/26 01:08:41;;;;;;;;;14.50;10.50;;;;;;;;5021437;28;11553;-79
2021/04/26 01:11:08;;;;;;;;;14.50;10.50;;;;;;;;5020988;28;11686;-80
2021/04/26 01:13:44;;;;;;;;;9.00;9.00;;;;;;;;5021845;28;11686;-78
2021/04/26 01:16:15;;;;;;;;;10.75;10.75;;;;;;;;5019512;28;11678;-79
2021/04/26 01:18:56;;;;;;;;;10.00;10.00;;;;;;;;5016774;28;11603;-78
2021/04/26 01:21:55;;;;;;;;;8.50;8.50;;;;;;;;5009294;28;11596;-78
2021/04/26 01:24:43;;;;;;;;;11.50;10.00;;;;;;;;5018848;28;11529;-78
2021/04/26 01:27:16;;;;;;;;;11.00;9.00;;;;;;;;5021617;28;11591;-77
2021/04/26 01:30:12;;;;;;;;;17.75;13.25;;;;;;;;5020128;28;12288;-78
2021/04/26 01:32:47;;;;;;;;;9.00;6.50;;;;;;;;5019384;28;11621;-78
2021/04/26 01:35:17;;;;;;;;;10.50;10.50;;;;;;;;5026555;28;11538;-80
2021/04/26 01:37:44;;;;;;;;;12.00;10.50;;;;;;;;5023608;28;11705;-80
2021/04/26 01:40:14;;;;;;;;;9.75;9.25;;;;;;;;5026090;28;11593;-80
2021/04/26 01:42:43;;;;;;;;;11.00;11.00;;;;;;;;5024986;28;11566;-80
2021/04/26 01:45:13;;;;;;;;;10.25;9.00;;;;;;;;5024894;28;11726;-80
2021/04/26 01:47:41;;;;;;;;;14.00;9.00;;;;;;;;5020956;28;11665;-80
2021/04/26 01:50:12;;;;;;;;;13.00;10.00;;;;;;;;5026089;28;11647;-81
2021/04/26 01:52:39;;;;;;;;;9.00;6.75;;;;;;;;5026738;28;11577;-82
2021/04/26 01:55:08;;;;;;;;;11.00;9.25;;;;;;;;5024621;28;11675;-81
2021/04/26 01:57:36;;;;;;;;;10.00;9.25;;;;;;;;5025472;28;11654;-82
2021/04/26 02:00:09;;;;;;;;;11.00;9.00;;;;;;;;5024307;28;12601;-81
2021/04/26 02:02:37;;;;;;;;;10.25;9.75;;;;;;;;5026385;28;11697;-81
2021/04/26 02:05:06;;;;;;;;;16.50;9.00;;;;;;;;5024364;28;11580;-82
2021/04/26 02:07:35;;;;;;;;;10.00;9.50;;;;;;;;5025402;28;11591;-83
2021/04/26 02:10:02;;;;;;;;;10.50;10.50;;;;;;;;5016868;28;11665;-81
2021/04/26 02:12:30;;;;;;;;;11.00;9.00;;;;;;;;5025488;28;11607;-81
2021/04/26 02:14:57;;;;;;;;;9.75;9.75;;;;;;;;5018089;28;11596;-81
2021/04/26 02:17:27;;;;;;;;;10.75;10.75;;;;;;;;5024408;28;11686;-79
2021/04/26 02:19:54;;;;;;;;;11.25;9.00;;;;;;;;5024066;28;11675;-80
2021/04/26 02:22:21;;;;;;;;;11.00;9.00;;;;;;;;5025159;28;11578;-82
2021/04/26 02:24:50;;;;;;;;;8.75;7.00;;;;;;;;5024978;28;11679;-82
2021/04/26 02:27:17;;;;;;;;;6.00;6.00;;;;;;;;5025124;28;11506;-82
2021/04/26 02:29:44;;;;;;;;;11.00;11.00;;;;;;;;5023623;28;11561;-80
2021/04/26 02:32:16;;;;;;;;;13.75;10.25;;;;;;;;5025301;28;11541;-82
2021/04/26 02:34:46;;;;;;;;;15.25;10.75;;;;;;;;5023683;28;11584;-82
2021/04/26 02:37:16;;;;;;;;;10.50;9.25;;;;;;;;5018528;28;11566;-82
2021/04/26 02:39:46;;;;;;;;;10.00;10.00;;;;;;;;5023761;28;11568;-81
2021/04/26 02:42:15;;;;;;;;;11.50;11.00;;;;;;;;5023901;28;11610;-82
2021/04/26 02:44:44;;;;;;;;;9.25;6.00;;;;;;;;5023400;28;11680;-82
2021/04/26 02:47:16;;;;;;;;;13.75;11.25;;;;;;;;5024012;28;11595;-80
2021/04/26 02:49:45;;;;;;;;;13.00;10.00;;;;;;;;5025373;28;11569;-80
2021/04/26 02:52:13;;;;;;;;;10.00;10.00;;;;;;;;5023760;28;11592;-80
2021/04/26 02:54:42;;;;;;;;;12.75;9.00;;;;;;;;5022184;28;11584;-82
2021/04/26 02:57:09;;;;;;;;;12.25;12.25;;;;;;;;5021327;28;11612;-80
2021/04/26 02:59:38;;;;;;;;;16.75;12.25;;;;;;;;5024650;28;11597;-78
2021/04/26 03:02:06;;;;;;;;;9.50;9.50;;;;;;;;5023018;28;11513;-78
2021/04/26 03:04:36;;;;;;;;;11.75;11.75;;;;;;;;5022968;28;11572;-79
2021/04/26 03:07:05;;;;;;;;;11.00;10.50;;;;;;;;5021995;28;11704;-77
2021/04/26 03:09:33;;;;;;;;;12.00;12.00;;;;;;;;5015401;28;11696;-77
2021/04/26 03:12:00;;;;;;;;;9.25;9.25;;;;;;;;5024108;28;11622;-77
2021/04/26 03:14:28;;;;;;;;;16.00;12.50;;;;;;;;5019831;28;11718;-78
2021/04/26 03:16:57;;;;;;;;;12.00;9.75;;;;;;;;5023862;28;12427;-78
2021/04/26 03:19:24;;;;;;;;;15.50;9.25;;;;;;;;5023003;28;11674;-78
2021/04/26 03:21:52;;;;;;;;;12.00;12.00;;;;;;;;5021713;28;11623;-78
2021/04/26 03:24:20;;;;;;;;;9.50;9.50;;;;;;;;5023539;28;11650;-78
2021/04/26 03:26:48;;;;;;;;;9.75;9.00;;;;;;;;5023868;28;11641;-81
2021/04/26 03:29:18;;;;;;;;;10.75;10.75;;;;;;;;5024240;28;11554;-81
2021/04/26 03:31:46;;;;;;;;;13.75;11.50;;;;;;;;5021814;28;11543;-82
2021/04/26 03:34:15;;;;;;;;;16.00;9.25;;;;;;;;5022724;28;12353;-81
2021/04/26 03:36:42;;;;;;;;;11.75;9.75;;;;;;;;5020099;28;11582;-82
2021/04/26 03:39:09;;;;;;;;;13.00;9.00;;;;;;;;5021381;28;11554;-82
2021/04/26 03:41:37;;;;;;;;;11.50;10.50;;;;;;;;5023853;28;11564;-78
2021/04/26 03:44:05;;;;;;;;;12.75;12.75;;;;;;;;5019682;28;11574;-79
2021/04/26 03:46:32;;;;;;;;;6.00;6.00;;;;;;;;5020974;28;12779;-77
2021/04/26 03:48:59;;;;;;;;;11.75;11.75;;;;;;;;5021609;28;11609;-77
2021/04/26 03:51:27;;;;;;;;;11.00;11.00;;;;;;;;5030260;28;11571;-82
2021/04/26 03:53:54;;;;;;;;;17.25;13.25;;;;;;;;5019291;28;11578;-82
2021/04/26 03:56:22;;;;;;;;;12.50;12.00;;;;;;;;5022204;28;12388;-82
2021/04/26 03:58:48;;;;;;;;;10.25;10.25;;;;;;;;5023107;28;11592;-82
2021/04/26 04:01:15;;;;;;;;;10.75;9.00;;;;;;;;5022318;28;11665;-82
2021/04/26 04:03:42;;;;;;;;;9.50;9.50;;;;;;;;5023993;28;11640;-80
2021/04/26 04:06:09;;;;;;;;;9.00;9.00;;;;;;;;5016437;28;11619;-81
2021/04/26 04:08:37;;;;;;;;;19.00;14.25;;;;;;;;5028056;28;11720;-82
2021/04/26 04:11:04;;;;;;;;;10.00;10.00;;;;;;;;5021193;28;11652;-80
2021/04/26 04:13:31;;;;;;;;;12.25;9.50;;;;;;;;5021973;28;11612;-79
2021/04/26 04:15:58;;;;;;;;;5.75;5.75;;;;;;;;5026437;28;11626;-78
2021/04/26 04:18:25;;;;;;;;;11.75;11.75;;;;;;;;5023431;28;11578;-78
2021/04/26 04:20:52;;;;;;;;;12.25;9.25;;;;;;;;5021761;28;11585;-78
2021/04/26 04:23:19;;;;;;;;;14.00;11.00;;;;;;;;5021733;28;11601;-78
2021/04/26 04:25:47;;;;;;;;;12.75;11.50;;;;;;;;5023128;28;12417;-79
2021/04/26 04:28:14;;;;;;;;;12.25;12.25;;;;;;;;5020425;28;11576;-80
2021/04/26 04:30:41;;;;;;;;;17.50;13.00;;;;;;;;5022041;28;11550;-80
2021/04/26 04:33:08;;;;;;;;;15.00;10.25;;;;;;;;5022201;28;11560;-80
2021/04/26 04:35:35;;;;;;;;;12.00;12.00;;;;;;;;5016219;28;11749;-79
2021/04/26 04:38:04;;;;;;;;;11.50;9.50;;;;;;;;5022833;28;12384;-80
2021/04/26 04:40:31;;;;;;;;;16.50;13.00;;;;;;;;5021843;28;11566;-80
2021/04/26 04:42:59;;;;;;;;;16.25;16.25;;;;;;;;5022901;28;11619;-78
2021/04/26 04:45:26;;;;;;;;;19.25;12.25;;;;;;;;5021609;28;11654;-80
2021/04/26 04:48:01;;;;;;;;;15.75;14.75;;;;;;;;5012461;28;11667;-80
2021/04/26 04:50:27;;;;;;;;;12.25;9.25;;;;;;;;5016077;28;11657;-77
2021/04/26 04:52:54;;;;;;;;;11.25;9.00;;;;;;;;5022647;28;11636;-78
2021/04/26 04:55:21;;;;;;;;;9.25;9.25;;;;;;;;5022049;28;11545;-78
2021/04/26 04:57:48;;;;;;;;;13.75;11.25;;;;;;;;5022024;28;11580;-76
2021/04/26 05:00:18;;;;;;;;;15.75;12.75;;;;;;;;5021577;28;11574;-78
2021/04/26 05:02:45;;;;;;;;;13.00;12.00;;;;;;;;5020470;28;11591;-79
2021/04/26 05:05:12;;;;;;;;;12.75;12.75;;;;;;;;5023065;28;11596;-79
2021/04/26 05:07:39;;;;;;;;;15.75;15.50;;;;;;;;5025585;28;11711;-78
2021/04/26 05:10:07;;;;;;;;;11.50;9.25;;;;;;;;5021247;28;11586;-78
2021/04/26 05:12:34;;;;;;;;;14.25;14.25;;;;;;;;5023788;28;11598;-77
2021/04/26 05:15:02;;;;;;;;;19.25;16.75;;;;;;;;5024749;28;11611;-78
2021/04/26 05:17:33;;;;;;;;;15.75;14.25;;;;;;;;5024620;28;11697;-79
2021/04/26 05:20:00;;;;;;;;;14.50;13.00;;;;;;;;5024941;28;11704;-79
2021/04/26 05:22:27;;;;;;;;;16.00;12.00;;;;;;;;5023989;28;11610;-79
2021/04/26 05:24:55;;;;;;;;;15.25;14.25;;;;;;;;5023378;28;11608;-79
2021/04/26 05:27:22;;;;;;;;;15.25;11.00;;;;;;;;5025413;28;11626;-77
2021/04/26 05:29:49;;;;;;;;;15.75;12.75;;;;;;;;5023478;28;11599;-75
2021/04/26 05:32:15;;;;;;;;;13.50;10.25;;;;;;;;5032143;28;11552;-73
2021/04/26 05:34:44;;;;;;;;;9.25;9.25;;;;;;;;5034633;28;12335;-75
2021/04/26 05:37:10;;;;;;;;;14.25;12.25;;;;;;;;5037538;28;11563;-75
2021/04/26 05:39:37;;;;;;;;;12.00;12.00;;;;;;;;5037536;28;11567;-75
2021/04/26 05:42:05;;;;;;;;;13.50;11.00;;;;;;;;5024484;28;11614;-76
2021/04/26 05:44:31;;;;;;;;;12.25;12.25;;;;;;;;5034205;28;11735;-77
2021/04/26 05:46:58;;;;;;;;;13.25;12.00;;;;;;;;5037878;28;11594;-74
2021/04/26 05:49:25;;;;;;;;;13.25;13.25;;;;;;;;5034085;28;11556;-74
2021/04/26 05:51:53;;;;;;;;;16.50;14.25;;;;;;;;5025184;28;11596;-74
2021/04/26 05:54:20;;;;;;;;;15.50;13.50;;;;;;;;5024445;28;11585;-74
2021/04/26 05:56:47;;;;;;;;;14.25;14.25;;;;;;;;5040444;28;11588;-76
2021/04/26 05:59:14;;;;;;;;;15.75;13.25;;;;;;;;5038332;28;11631;-73
2021/04/26 06:01:41;;;;;;;;;17.25;14.50;;;;;;;;5037859;28;11550;-80
2021/04/26 06:04:08;;;;;;;;;18.00;14.00;;;;;;;;5042272;28;11603;-74
2021/04/26 06:06:35;;;;;;;;;14.50;14.50;;;;;;;;5042305;28;11691;-76
2021/04/26 06:09:03;;;;;;;;;12.25;12.25;;;;;;;;5024228;28;11578;-72
2021/04/26 06:11:30;;;;;;;;;17.00;15.50;;;;;;;;5028991;28;11602;-74
2021/04/26 06:13:57;;;;;;;;;12.00;9.75;;;;;;;;5027242;28;11578;-73
2021/04/26 06:16:24;;;;;;;;;16.25;12.50;;;;;;;;5021987;28;12551;-73
2021/04/26 06:18:52;;;;;;;;;17.50;13.75;;;;;;;;5029101;28;11599;-73
2021/04/26 06:21:19;;;;;;;;;11.00;11.00;;;;;;;;5030851;28;11576;-74
2021/04/26 06:23:46;;;;;;;;;16.25;13.25;;;;;;;;5028752;28;11692;-75
2021/04/26 06:26:14;;;;;;;;;13.00;12.50;;;;;;;;5034666;28;11601;-73
2021/04/26 06:28:41;;;;;;;;;19.25;14.75;;;;;;;;5041738;28;11622;-73
2021/04/26 06:31:08;;;;;;;;;15.00;12.25;;;;;;;;5036887;28;11645;-73
2021/04/26 06:33:35;;;;;;;;;18.00;16.50;;;;;;;;5042215;28;11621;-73
2021/04/26 06:36:02;;;;;;;;;15.00;13.00;;;;;;;;5040064;28;11638;-73
2021/04/26 06:38:29;;;;;;;;;20.00;16.50;;;;;;;;5032080;28;11704;-73
2021/04/26 06:40:55;;;;;;;;;18.00;17.00;;;;;;;;5033581;28;11581;-73
2021/04/26 06:43:24;;;;;;;;;12.00;12.00;;;;;;;;5036111;28;11671;-72
2021/04/26 06:45:51;;;;;;;;;14.50;14.50;;;;;;;;5036826;28;11564;-73
2021/04/26 06:48:18;;;;;;;;;20.25;16.50;;;;;;;;5031832;28;12413;-73
2021/04/26 06:50:46;;;;;;;;;12.50;12.50;;;;;;;;5039271;28;11590;-73
2021/04/26 06:53:13;;;;;;;;;12.75;12.75;;;;;;;;5029864;28;11525;-73
2021/04/26 06:55:41;;;;;;;;;14.25;14.25;;;;;;;;5041372;28;11601;-73
2021/04/26 06:58:07;;;;;;;;;10.75;10.75;;;;;;;;5038758;28;11586;-73
2021/04/26 07:00:36;;;;;;;;;22.00;15.75;;;;;;;;5037140;28;11561;-73
2021/04/26 07:03:04;;;;;;;;;14.25;12.50;;;;;;;;5036747;28;11603;-73
2021/04/26 07:05:31;;;;;;;;;15.00;15.00;;;;;;;;5036588;28;11617;-73
2021/04/26 07:07:58;;;;;;;;;12.00;12.00;;;;;;;;5026700;28;11712;-72
2021/04/26 07:10:25;;;;;;;;;18.50;15.50;;;;;;;;5026650;28;11591;-73
2021/04/26 07:12:52;;;;;;;;;14.25;13.50;;;;;;;;5039215;28;11578;-73
2021/04/26 07:15:19;;;;;;;;;20.00;16.00;;;;;;;;5031430;28;11632;-73
2021/04/26 07:17:47;;;;;;;;;21.25;13.25;;;;;;;;5037953;28;11565;-72
2021/04/26 07:20:15;;;;;;;;;16.25;14.00;;;;;;;;5038997;28;11617;-73
2021/04/26 07:22:42;;;;;;;;;14.00;14.00;;;;;;;;5031285;28;11602;-73
2021/04/26 07:25:11;;;;;;;;;15.25;14.00;;;;;;;;5034410;28;11587;-73
2021/04/26 07:27:38;;;;;;;;;16.50;14.00;;;;;;;;5038464;28;11652;-73
2021/04/26 07:30:06;;;;;;;;;17.25;15.25;;;;;;;;5037547;28;11691;-73
2021/04/26 07:32:33;;;;;;;;;17.50;15.00;;;;;;;;5035542;28;11690;-73
2021/04/26 07:35:01;;;;;;;;;21.00;15.50;;;;;;;;5031360;28;11602;-73
2021/04/26 07:37:28;;;;;;;;;11.50;11.50;;;;;;;;5035912;28;11722;-74
2021/04/26 07:39:55;;;;;;;;;17.00;16.00;;;;;;;;5033581;28;11589;-73
2021/04/26 07:42:22;;;;;;;;;14.75;14.00;;;;;;;;5039510;28;11589;-73
2021/04/26 07:44:49;;;;;;;;;20.00;14.25;;;;;;;;5036500;28;11569;-73
2021/04/26 07:47:16;;;;;;;;;13.50;12.75;;;;;;;;5031444;28;11679;-74
2021/04/26 07:49:43;;;;;;;;;14.75;12.00;;;;;;;;5035317;28;11551;-74
2021/04/26 07:52:10;;;;;;;;;14.75;13.25;;;;;;;;5040216;28;11578;-74
2021/04/26 07:54:37;;;;;;;;;18.50;13.00;;;;;;;;5028728;28;11561;-73
2021/04/26 07:57:05;;;;;;;;;13.25;10.50;;;;;;;;5023903;28;11746;-72
2021/04/26 07:59:32;;;;;;;;;17.25;14.25;;;;;;;;5022259;28;11549;-72
2021/04/26 08:01:58;;;;;;;;;15.50;13.25;;;;;;;;5020741;28;11637;-72
2021/04/26 08:04:25;;;;;;;;;17.25;15.00;;;;;;;;5020880;28;12325;-73
2021/04/26 08:06:53;;;;;;;;;18.25;10.25;;;;;;;;5017292;28;11541;-73
2021/04/26 08:09:21;;;;;;;;;9.00;9.00;;;;;;;;5033041;28;11492;-74
2021/04/26 08:11:48;;;;;;;;;17.00;15.25;;;;;;;;5029238;28;11499;-75
2021/04/26 08:14:16;;;;;;;;;15.50;13.25;;;;;;;;5029729;28;11528;-74
2021/04/26 08:16:42;;;;;;;;;10.00;8.25;;;;;;;;5031950;28;11527;-75
2021/04/26 08:19:10;;;;;;;;;12.25;12.25;;;;;;;;5022889;28;11514;-74
2021/04/26 08:21:38;;;;;;;;;12.25;11.75;;;;;;;;5027666;28;11565;-74
2021/04/26 08:24:06;;;;;;;;;12.00;11.50;;;;;;;;5019880;28;11528;-75
2021/04/26 08:26:34;;;;;;;;;12.50;12.50;;;;;;;;5020912;28;11561;-75
2021/04/26 08:29:01;;;;;;;;;12.75;12.00;;;;;;;;5021828;28;11186;-74
2021/04/26 08:31:28;;;;;;;;;16.75;14.50;;;;;;;;5019010;28;11079;-75
2021/04/26 08:33:55;;;;;;;;;11.50;10.50;;;;;;;;5021143;28;11781;-74
2021/04/26 08:36:21;;;;;;;;;12.75;10.00;;;;;;;;5020753;28;10821;-74
2021/04/26 08:38:49;;;;;;;;;15.00;13.75;;;;;;;;5021099;28;10918;-75
2021/04/26 08:41:17;;;;;;;;;12.50;11.75;;;;;;;;5019845;28;10964;-76
2021/04/26 08:43:46;;;;;;;;;18.25;15.25;;;;;;;;5020499;28;10731;-76
2021/04/26 08:46:13;;;;;;;;;11.25;10.00;;;;;;;;5022221;28;11528;-77
2021/04/26 08:48:41;;;;;;;;;14.50;13.50;;;;;;;;5020937;28;10703;-75
2021/04/26 08:51:08;;;;;;;;;10.00;10.00;;;;;;;;5021882;28;10696;-75
2021/04/26 08:53:35;;;;;;;;;15.00;13.50;;;;;;;;5028892;28;11290;-75
2021/04/26 08:56:02;;;;;;;;;8.75;8.75;;;;;;;;5026774;28;10760;-75
2021/04/26 08:58:29;;;;;;;;;10.00;10.00;;;;;;;;5019094;28;10331;-74
2021/04/26 09:00:57;;;;;;;;;14.25;12.25;;;;;;;;5021274;28;10442;-74
2021/04/26 09:03:31;;;;;;;;;8.75;8.75;;;;;;;;5021418;28;10434;-75
2021/04/26 09:05:59;;;;;;;;;10.00;8.25;;;;;;;;5021068;28;10285;-75
2021/04/26 09:08:27;;;;;;;;;14.50;10.50;;;;;;;;5020271;28;10247;-75
2021/04/26 09:11:00;;;;;;;;;10.00;10.00;;;;;;;;5025433;28;10143;-75
2021/04/26 09:13:36;;;;;;;;;11.00;11.00;;;;;;;;5037115;28;10216;-74
2021/04/26 09:16:06;;;;;;;;;11.50;11.50;;;;;;;;5018978;28;10259;-77
2021/04/26 09:18:51;;;;;;;;;11.25;11.25;;;;;;;;5021005;28;10045;-75
2021/04/26 09:21:25;;;;;;;;;11.00;11.00;;;;;;;;5007743;28;9951;-74
2021/04/26 09:24:12;;;;;;;;;9.25;9.25;;;;;;;;5020694;28;9941;-75
2021/04/26 09:26:40;;;;;;;;;7.25;6.75;;;;;;;;5021903;28;9952;-77
2021/04/26 09:29:22;;;;;;;;;10.00;10.00;;;;;;;;5021287;28;9811;-74
2021/04/26 09:32:10;;;;;;;;;12.00;8.25;;;;;;;;5013214;28;9667;-77
2021/04/26 09:34:40;;;;;;;;;10.25;10.25;;;;;;;;5019277;28;9732;-78
2021/04/26 09:37:17;;;;;;;;;11.00;11.00;;;;;;;;5027903;28;10195;-77
2021/04/26 09:40:04;;;;;;;;;13.33;11.00;;;;;;;;5035968;28;9652;-78
2021/04/26 09:42:45;;;;;;;;;11.67;11.67;;;;;;;;5033707;28;9501;-76
2021/04/26 09:45:24;;;;;;;;;9.33;9.33;;;;;;;;5014059;28;9625;-76
2021/04/26 09:48:09;;;;;;;;;8.00;8.00;;;;;;;;5019305;28;9480;-76
2021/04/26 09:50:50;;;;;;;;;7.33;7.33;;;;;;;;5020886;28;9453;-80
2021/04/26 09:53:17;;;;;;;;;9.00;9.00;;;;;;;;5023851;28;9325;-80
2021/04/26 09:55:44;;;;;;;;;11.33;11.33;;;;;;;;5025574;28;9105;-75
2021/04/26 09:58:11;;;;;;;;;9.00;9.00;;;;;;;;5033791;28;9958;-75
2021/04/26 10:00:38;;;;;;;;;8.33;7.00;;;;;;;;5027375;28;9144;-74
2021/04/26 10:03:06;;;;;;;;;11.00;8.33;;;;;;;;5029127;28;9019;-77
2021/04/26 10:05:33;;;;;;;;;12.67;10.00;;;;;;;;5032588;28;9012;-79
2021/04/26 10:08:00;;;;;;;;;9.50;9.50;;;;;;;;5021290;28;9833;-75
2021/04/26 10:10:27;;;;;;;;;10.00;7.25;;;;;;;;5024510;28;8932;-75
2021/04/26 10:12:54;;;;;;;;;6.33;6.33;;;;;;;;5023807;28;8910;-73
2021/04/26 10:15:26;;;;;;;;;13.00;11.33;;;;;;;;5024976;28;8951;-77
2021/04/26 10:17:55;;;;;;;;;8.50;8.50;;;;;;;;5025204;28;8983;-77
2021/04/26 10:20:39;;;;;;;;;7.75;7.75;;;;;;;;5025727;28;8863;-76
2021/04/26 10:23:06;;;;;;;;;12.00;8.25;;;;;;;;5018365;28;8863;-78
2021/04/26 10:25:39;;;;;;;;;8.25;8.25;;;;;;;;5024794;28;10349;-77
2021/04/26 10:28:29;;;;;;;;;10.75;8.75;;;;;;;;5038392;28;8999;-75
2021/04/26 10:31:05;;;;;;;;;8.50;8.50;;;;;;;;5030498;28;8839;-76
2021/04/26 10:34:05;;;;;;;;;8.00;8.00;;;;;;;;5025039;28;8900;-74
2021/04/26 10:36:43;;;;;;;;;9.25;8.25;;;;;;;;4963056;28;8900;-77
2021/04/26 10:39:12;;;;;;;;;8.25;8.25;;;;;;;;5013230;28;8872;-77
2021/04/26 10:42:03;;;;;;;;;5.75;5.75;;;;;;;;5033589;28;8868;-77
2021/04/26 10:44:51;;;;;;;;;9.25;5.75;;;;;;;;5020333;28;8878;-75
2021/04/26 10:47:33;;;;;;;;;7.00;7.00;;;;;;;;5023001;28;8904;-74
2021/04/26 10:50:33;;;;;;;;;6.75;6.00;;;;;;;;5019855;28;8876;-76
2021/04/26 10:53:02;;;;;;;;;8.00;6.75;;;;;;;;5020355;28;9675;-76
2021/04/26 10:55:59;;;;;;;;;7.00;6.00;;;;;;;;5023251;28;8865;-77
2021/04/26 10:58:40;;;;;;;;;8.50;7.50;;;;;;;;4978002;28;8970;-78
2021/04/26 11:01:08;;;;;;;;;10.75;8.75;;;;;;;;5014607;28;8855;-75
2021/04/26 11:03:40;;;;;;;;;8.50;8.50;;;;;;;;5021193;28;8880;-78
2021/04/26 11:06:27;;;;;;;;;14.00;10.00;;;;;;;;5024394;28;9657;-77
2021/04/26 11:14:34;;;;;;;;;11.50;9.50;;;;;;;;5027897;28;8857;-79
2021/04/26 11:17:05;;;;;;;;;11.50;11.50;;;;;;;;5029484;28;9002;-77
2021/04/26 11:19:33;;;;;;;;;13.25;11.25;;;;;;;;5028742;28;8874;-80
2021/04/26 11:22:02;;;;;;;;;11.00;9.75;;;;;;;;5033871;28;8869;-78
2021/04/26 11:25:02;;;;;;;;;8.50;7.25;;;;;;;;5033462;28;8861;-76
2021/04/26 11:27:30;;;;;;;;;10.25;10.25;;;;;;;;4971836;28;9418;-77
2021/04/26 11:30:20;;;;;;;;;6.25;6.25;;;;;;;;5016219;28;8860;-75
2021/04/26 11:33:19;;;;;;;;;4.50;4.50;;;;;;;;5026722;28;8847;-75
2021/04/26 11:36:14;;;;;;;;;9.25;9.00;;;;;;;;5027201;28;8957;-79
2021/04/26 11:38:43;;;;;;;;;15.50;10.75;;;;;;;;5022619;28;8877;-77
2021/04/26 11:41:11;;;;;;;;;10.50;8.75;;;;;;;;5034462;28;8988;-77
2021/04/26 11:43:46;;;;;;;;;9.25;9.25;;;;;;;;5026180;28;8846;-75
2021/04/26 11:46:13;;;;;;;;;8.75;8.75;;;;;;;;5032507;28;8836;-75
2021/04/26 11:48:40;;;;;;;;;9.00;9.00;;;;;;;;5025292;28;8893;-78
2021/04/26 11:51:07;;;;;;;;;9.25;8.50;;;;;;;;5032377;28;8987;-74
2021/04/26 11:53:34;;;;;;;;;9.00;9.00;;;;;;;;5036384;28;8895;-74
2021/04/26 11:56:13;;;;;;;;;8.25;8.25;;;;;;;;5034613;28;8924;-75
2021/04/26 11:58:40;;;;;;;;;9.00;8.00;;;;;;;;5037167;28;8868;-74
2021/04/26 12:01:09;;;;;;;;;6.25;6.25;;;;;;;;5033961;28;8841;-74
2021/04/26 12:03:53;;;;;;;;;7.50;7.25;;;;;;;;5038568;28;8968;-77
2021/04/26 12:06:21;;;;;;;;;6.00;6.00;;;;;;;;5026142;28;8889;-73
2021/04/26 12:08:48;;;;;;;;;8.75;7.00;;;;;;;;5015918;28;8918;-74
2021/04/26 12:11:18;;;;;;;;;7.25;6.25;;;;;;;;5019297;28;9642;-74
2021/04/26 12:13:45;;;;;;;;;8.75;8.75;;;;;;;;5021656;28;8861;-74
2021/04/26 12:16:25;;;;;;;;;6.75;6.75;;;;;;;;5021471;28;9673;-74
2021/04/26 12:19:02;;;;;;;;;9.25;8.75;;;;;;;;5023604;28;8869;-74
2021/04/26 12:21:29;;;;;;;;;7.75;7.75;;;;;;;;5024920;28;8861;-74
2021/04/26 12:23:56;;;;;;;;;9.00;9.00;;;;;;;;5019716;28;8887;-75
2021/04/26 12:26:25;;;;;;;;;9.75;8.50;;;;;;;;5029281;28;8883;-75
2021/04/26 12:28:52;;;;;;;;;7.00;7.00;;;;;;;;5028447;28;8902;-74
2021/04/26 12:31:20;;;;;;;;;7.00;6.25;;;;;;;;5025188;28;9605;-78
2021/04/26 12:33:47;;;;;;;;;9.75;9.75;;;;;;;;5028283;28;8943;-74
2021/04/26 12:36:15;;;;;;;;;8.00;8.00;;;;;;;;5023140;28;8841;-73
2021/04/26 12:38:49;;;;;;;;;10.00;10.00;;;;;;;;5018978;28;8883;-74
2021/04/26 12:41:19;;;;;;;;;3.40;3.00;;;;;;;;5019898;28;8883;-74
2021/04/26 12:43:53;;;;;;;;;7.40;7.40;;;;;;;;5021478;28;8876;-74
2021/04/26 12:46:21;;;;;;;;;7.75;7.75;;;;;;;;5019501;28;8863;-74
2021/04/26 12:48:50;;;;;;;;;8.80;8.60;;;;;;;;5031921;28;8875;-74
2021/04/26 12:51:31;;;;;;;;;8.00;6.40;;;;;;;;5016997;28;8866;-75
2021/04/26 12:54:09;;;;;;;;;6.00;6.00;;;;;;;;5029574;28;8873;-73
2021/04/26 12:56:36;;;;;;;;;4.00;3.00;;;;;;;;5028364;28;9013;-74
2021/04/26 12:59:04;;;;;;;;;7.25;7.25;;;;;;;;5031840;28;9431;-75
2021/04/26 13:01:31;;;;;;;;;9.00;9.00;;;;;;;;5025133;28;8832;-74
2021/04/26 13:03:59;;;;;;;;;9.00;9.00;;;;;;;;5028311;28;9665;-74
2021/04/26 13:06:28;;;;;;;;;7.00;7.00;;;;;;;;5031361;28;9662;-74
2021/04/26 13:08:57;;;;;;;;;10.25;10.00;;;;;;;;5023781;28;8884;-74
2021/04/26 13:11:32;;;;;;;;;9.20;7.00;;;;;;;;5017197;28;9657;-74
2021/04/26 13:14:01;;;;;;;;;5.80;5.80;;;;;;;;5015952;28;8922;-74
2021/04/26 13:16:31;;;;;;;;;7.40;5.60;;;;;;;;5024532;28;8899;-74
2021/04/26 13:19:00;;;;;;;;;8.00;6.20;;;;;;;;5024475;28;9027;-74
2021/04/26 13:21:34;;;;;;;;;7.20;6.60;;;;;;;;5019113;28;8845;-74
2021/04/26 13:24:12;;;;;;;;;9.20;6.40;;;;;;;;5013817;28;8899;-74
2021/04/26 13:26:40;;;;;;;;;8.00;6.40;;;;;;;;5021115;28;8869;-75
2021/04/26 13:29:14;;;;;;;;;7.00;7.00;;;;;;;;5027743;28;8873;-74
2021/04/26 13:31:43;;;;;;;;;11.80;9.20;;;;;;;;5022229;28;8834;-74
2021/04/26 13:34:11;;;;;;;;;11.00;11.00;;;;;;;;5030133;28;9214;-74
2021/04/26 13:36:38;;;;;;;;;8.00;7.80;;;;;;;;5024080;28;8863;-74
2021/04/26 13:39:06;;;;;;;;;6.60;6.60;;;;;;;;5029905;28;9042;-74
2021/04/26 13:41:33;;;;;;;;;8.20;8.20;;;;;;;;5024756;28;8849;-74
2021/04/26 13:44:00;;;;;;;;;7.80;7.80;;;;;;;;5033594;28;8903;-74
2021/04/26 13:46:28;;;;;;;;;11.40;11.40;;;;;;;;5026798;28;8894;-74
2021/04/26 13:48:57;;;;;;;;;9.60;9.60;;;;;;;;5023631;28;8994;-74
2021/04/26 13:51:23;;;;;;;;;9.80;9.00;;;;;;;;5027175;28;8868;-74
2021/04/26 13:53:52;;;;;;;;;9.60;9.40;;;;;;;;5033518;28;8864;-74
2021/04/26 13:56:19;;;;;;;;;12.40;12.40;;;;;;;;5026726;28;8864;-74
2021/04/26 13:58:46;;;;;;;;;9.20;7.20;;;;;;;;5021385;28;8978;-74
2021/04/26 14:01:13;;;;;;;;;13.40;12.00;;;;;;;;5032422;28;9322;-73
2021/04/26 14:03:42;;;;;;;;;7.25;7.25;;;;;;;;5032380;28;8918;-74
2021/04/26 14:06:10;;;;;;;;;11.60;11.60;;;;;;;;5037390;28;8884;-74
2021/04/26 14:08:36;;;;;;;;;15.75;12.25;;;;;;;;5038256;28;8873;-74
2021/04/26 14:11:03;;;;;;;;;11.80;11.20;;;;;;;;5034819;28;8872;-74
2021/04/26 14:13:32;;;;;;;;;11.75;11.50;;;;;;;;5035072;28;8895;-74
2021/04/26 14:15:59;;;;;;;;;13.25;11.75;;;;;;;;5029861;28;8884;-74
2021/04/26 14:18:26;;;;;;;;;13.00;11.80;;;;;;;;5022330;28;8844;-75
2021/04/26 14:20:53;;;;;;;;;11.20;10.80;;;;;;;;5021646;28;8887;-74
2021/04/26 14:23:21;;;;;;;;;11.00;10.00;;;;;;;;5021029;28;8860;-74
2021/04/26 14:25:48;;;;;;;;;13.25;12.75;;;;;;;;5021917;28;8898;-74
2021/04/26 14:28:16;;;;;;;;;12.60;12.60;;;;;;;;5030208;28;8956;-75
2021/04/26 14:30:44;;;;;;;;;16.50;14.00;;;;;;;;5029671;28;8827;-75
2021/04/26 14:33:11;;;;;;;;;12.20;12.20;;;;;;;;5029739;28;8876;-75
2021/04/26 14:35:39;;;;;;;;;15.50;13.00;;;;;;;;5032392;28;8863;-75
2021/04/26 14:38:07;;;;;;;;;11.80;10.00;;;;;;;;5023067;28;9800;-75
2021/04/26 14:40:36;;;;;;;;;11.75;10.00;;;;;;;;5022705;28;8892;-75
2021/04/26 14:43:04;;;;;;;;;12.00;12.00;;;;;;;;5023893;28;8867;-75
2021/04/26 14:45:31;;;;;;;;;13.00;12.00;;;;;;;;5025887;28;8864;-76
2021/04/26 14:47:59;;;;;;;;;7.50;7.50;;;;;;;;5025958;28;9627;-77
2021/04/26 14:50:27;;;;;;;;;11.00;11.00;;;;;;;;5032843;28;8864;-75
2021/04/26 14:52:54;;;;;;;;;15.00;13.00;;;;;;;;5029186;28;8893;-75